sensor_id;sensor_type;location;lat;lon;timestamp;pressure;altitude;pressure_sealevel;temperature;humidity
3132;BME280;62090;52.330;9.104;2023-04-08T00:02:16;101698.59;;;8.67;80.06
3132;BME280;62090;52.330;9.104;2023-04-08T00:04:49;101698.69;;;8.69;79.49
3132;BME280;62090;52.330;9.104;2023-04-08T00:07:19;101701.88;;;8.65;79.83
3132;BME280;62090;52.330;9.104;2023-04-08T00:09:48;101687.66;;;8.51;80.25
3132;BME280;62090;52.330;9.104;2023-04-08T00:12:18;101707.91;;;8.67;79.77
3132;BME280;62090;52.330;9.104;2023-04-08T00:14:48;101677.75;;;8.57;79.59
3132;BME280;62090;52.330;9.104;2023-04-08T00:17:18;101701.50;;;8.75;79.57
3132;BME280;62090;52.330;9.104;2023-04-08T00:19:50;101702.81;;;8.84;79.22
3132;BME280;62090;52.330;9.104;2023-04-08T00:22:21;101704.34;;;8.81;79.53
3132;BME280;62090;52.330;9.104;2023-04-08T00:24:51;101692.94;;;8.73;79.67
3132;BME280;62090;52.330;9.104;2023-04-08T00:27:21;101674.00;;;8.48;80.24
3132;BME280;62090;52.330;9.104;2023-04-08T00:29:51;101702.66;;;8.64;80.28
3132;BME280;62090;52.330;9.104;2023-04-08T00:32:21;101702.31;;;8.74;80.30
3132;BME280;62090;52.330;9.104;2023-04-08T00:34:54;101679.88;;;8.47;80.45
3132;BME280;62090;52.330;9.104;2023-04-08T00:37:24;101648.69;;;8.32;80.17
3132;BME280;62090;52.330;9.104;2023-04-08T00:39:53;101707.34;;;8.72;80.32
3132;BME280;62090;52.330;9.104;2023-04-08T00:42:23;101702.88;;;8.68;80.51
3132;BME280;62090;52.330;9.104;2023-04-08T00:44:53;101698.97;;;8.75;81.02
3132;BME280;62090;52.330;9.104;2023-04-08T00:47:23;101686.25;;;8.75;80.72
3132;BME280;62090;52.330;9.104;2023-04-08T00:49:56;101699.00;;;8.94;79.86
3132;BME280;62090;52.330;9.104;2023-04-08T00:52:26;101691.19;;;8.89;80.14
3132;BME280;62090;52.330;9.104;2023-04-08T00:54:56;101691.25;;;8.91;80.16
3132;BME280;62090;52.330;9.104;2023-04-08T00:57:26;101700.84;;;8.97;79.80
3132;BME280;62090;52.330;9.104;2023-04-08T00:59:55;101693.13;;;8.95;80.13
3132;BME280;62090;52.330;9.104;2023-04-08T01:02:30;101700.75;;;8.95;80.91
3132;BME280;62090;52.330;9.104;2023-04-08T01:05:08;101701.84;;;9.00;80.50
3132;BME280;62090;52.330;9.104;2023-04-08T01:07:43;101703.97;;;8.91;80.79
3132;BME280;62090;52.330;9.104;2023-04-08T01:10:20;101687.56;;;8.84;80.84
3132;BME280;62090;52.330;9.104;2023-04-08T01:12:53;101710.81;;;8.92;81.60
3132;BME280;62090;52.330;9.104;2023-04-08T01:15:25;101682.44;;;8.65;82.40
3132;BME280;62090;52.330;9.104;2023-04-08T01:17:57;101696.00;;;8.66;82.96
3132;BME280;62090;52.330;9.104;2023-04-08T01:20:31;101707.63;;;8.61;82.93
3132;BME280;62090;52.330;9.104;2023-04-08T01:23:15;101697.88;;;8.52;83.49
3132;BME280;62090;52.330;9.104;2023-04-08T01:25:51;101682.56;;;8.33;84.08
3132;BME280;62090;52.330;9.104;2023-04-08T01:28:27;101694.97;;;8.44;85.06
3132;BME280;62090;52.330;9.104;2023-04-08T01:30:59;101702.38;;;8.40;84.40
3132;BME280;62090;52.330;9.104;2023-04-08T01:33:30;101697.88;;;8.34;84.35
3132;BME280;62090;52.330;9.104;2023-04-08T01:36:01;101696.75;;;8.29;84.97
3132;BME280;62090;52.330;9.104;2023-04-08T01:38:37;101707.81;;;8.30;85.41
3132;BME280;62090;52.330;9.104;2023-04-08T01:41:10;101691.75;;;8.31;84.80
3132;BME280;62090;52.330;9.104;2023-04-08T01:43:42;101692.72;;;8.33;84.66
3132;BME280;62090;52.330;9.104;2023-04-08T01:46:13;101673.16;;;8.14;84.83
3132;BME280;62090;52.330;9.104;2023-04-08T01:48:44;101699.75;;;8.38;84.43
3132;BME280;62090;52.330;9.104;2023-04-08T01:51:15;101703.28;;;8.24;85.18
3132;BME280;62090;52.330;9.104;2023-04-08T01:53:45;101681.69;;;8.16;85.11
3132;BME280;62090;52.330;9.104;2023-04-08T01:56:20;101681.13;;;8.22;85.29
3132;BME280;62090;52.330;9.104;2023-04-08T01:58:51;101681.56;;;8.13;85.91
3132;BME280;62090;52.330;9.104;2023-04-08T02:01:24;101688.53;;;8.17;86.43
3132;BME280;62090;52.330;9.104;2023-04-08T02:03:57;101691.28;;;8.22;85.19
3132;BME280;62090;52.330;9.104;2023-04-08T02:06:28;101695.78;;;8.27;85.69
3132;BME280;62090;52.330;9.104;2023-04-08T02:08:59;101715.78;;;8.37;85.89
3132;BME280;62090;52.330;9.104;2023-04-08T02:11:32;101715.13;;;8.41;85.84
3132;BME280;62090;52.330;9.104;2023-04-08T02:14:02;101657.00;;;7.96;85.92
3132;BME280;62090;52.330;9.104;2023-04-08T02:16:38;101718.81;;;8.30;86.14
3132;BME280;62090;52.330;9.104;2023-04-08T02:19:11;101724.78;;;8.15;86.38
3132;BME280;62090;52.330;9.104;2023-04-08T02:21:45;101718.13;;;8.17;87.31
3132;BME280;62090;52.330;9.104;2023-04-08T02:24:17;101706.94;;;8.13;86.96
3132;BME280;62090;52.330;9.104;2023-04-08T02:26:50;101706.94;;;8.13;87.33
3132;BME280;62090;52.330;9.104;2023-04-08T02:29:23;101664.97;;;7.86;86.90
3132;BME280;62090;52.330;9.104;2023-04-08T02:31:54;101714.63;;;8.15;86.43
3132;BME280;62090;52.330;9.104;2023-04-08T02:34:24;101694.97;;;8.11;85.68
3132;BME280;62090;52.330;9.104;2023-04-08T02:36:55;101705.19;;;8.12;86.14
3132;BME280;62090;52.330;9.104;2023-04-08T02:39:29;101716.31;;;8.14;86.09
3132;BME280;62090;52.330;9.104;2023-04-08T02:42:02;101716.31;;;8.14;86.64
3132;BME280;62090;52.330;9.104;2023-04-08T02:44:32;101712.50;;;8.06;87.11
3132;BME280;62090;52.330;9.104;2023-04-08T02:47:02;101699.81;;;8.06;86.52
3132;BME280;62090;52.330;9.104;2023-04-08T02:49:34;101714.06;;;8.20;86.05
3132;BME280;62090;52.330;9.104;2023-04-08T02:52:04;101706.31;;;8.17;85.80
3132;BME280;62090;52.330;9.104;2023-04-08T02:54:33;101704.19;;;8.09;86.28
3132;BME280;62090;52.330;9.104;2023-04-08T02:57:06;101731.03;;;8.21;85.72
3132;BME280;62090;52.330;9.104;2023-04-08T02:59:36;101682.06;;;7.90;85.86
3132;BME280;62090;52.330;9.104;2023-04-08T03:02:06;101738.50;;;8.18;85.52
3132;BME280;62090;52.330;9.104;2023-04-08T03:04:36;101728.84;;;8.11;85.99
3132;BME280;62090;52.330;9.104;2023-04-08T03:07:06;101722.25;;;8.15;85.59
3132;BME280;62090;52.330;9.104;2023-04-08T03:09:36;101727.63;;;8.21;85.88
3132;BME280;62090;52.330;9.104;2023-04-08T03:12:08;101735.81;;;8.31;85.75
3132;BME280;62090;52.330;9.104;2023-04-08T03:14:38;101737.28;;;8.28;85.51
3132;BME280;62090;52.330;9.104;2023-04-08T03:17:08;101704.91;;;8.06;85.73
3132;BME280;62090;52.330;9.104;2023-04-08T03:19:38;101728.94;;;8.13;85.78
3132;BME280;62090;52.330;9.104;2023-04-08T03:22:07;101740.63;;;8.27;85.61
3132;BME280;62090;52.330;9.104;2023-04-08T03:24:38;101744.78;;;8.25;85.72
3132;BME280;62090;52.330;9.104;2023-04-08T03:27:10;101744.69;;;8.23;86.09
3132;BME280;62090;52.330;9.104;2023-04-08T03:29:41;101744.69;;;8.23;86.01
3132;BME280;62090;52.330;9.104;2023-04-08T03:32:12;101743.72;;;8.21;86.56
3132;BME280;62090;52.330;9.104;2023-04-08T03:34:42;101750.66;;;8.24;86.42
3132;BME280;62090;52.330;9.104;2023-04-08T03:37:12;101743.06;;;8.25;86.34
3132;BME280;62090;52.330;9.104;2023-04-08T03:39:42;101747.16;;;8.22;86.44
3132;BME280;62090;52.330;9.104;2023-04-08T03:42:14;101688.91;;;7.91;86.33
3132;BME280;62090;52.330;9.104;2023-04-08T03:44:44;101718.38;;;8.05;86.60
3132;BME280;62090;52.330;9.104;2023-04-08T03:47:14;101744.69;;;8.23;86.09
3132;BME280;62090;52.330;9.104;2023-04-08T03:49:44;101723.31;;;8.02;86.50
3132;BME280;62090;52.330;9.104;2023-04-08T03:52:13;101730.94;;;8.02;86.89
3132;BME280;62090;52.330;9.104;2023-04-08T03:54:43;101753.56;;;8.15;86.70
3132;BME280;62090;52.330;9.104;2023-04-08T03:57:15;101728.63;;;8.06;86.97
3132;BME280;62090;52.330;9.104;2023-04-08T03:59:45;101741.53;;;8.11;86.73
3132;BME280;62090;52.330;9.104;2023-04-08T04:02:15;101750.72;;;8.09;86.44
3132;BME280;62090;52.330;9.104;2023-04-08T04:04:45;101677.66;;;7.70;86.89
3132;BME280;62090;52.330;9.104;2023-04-08T04:07:15;101738.69;;;8.05;86.98
3132;BME280;62090;52.330;9.104;2023-04-08T04:09:44;101726.50;;;7.98;86.89
3132;BME280;62090;52.330;9.104;2023-04-08T04:12:17;101744.72;;;8.07;86.93
3132;BME280;62090;52.330;9.104;2023-04-08T04:14:47;101742.66;;;8.00;86.66
3132;BME280;62090;52.330;9.104;2023-04-08T04:17:17;101756.63;;;7.92;87.00
3132;BME280;62090;52.330;9.104;2023-04-08T04:19:47;101755.03;;;7.94;87.80
3132;BME280;62090;52.330;9.104;2023-04-08T04:22:17;101754.72;;;7.88;87.88
3132;BME280;62090;52.330;9.104;2023-04-08T04:24:47;101757.25;;;7.88;88.37
3132;BME280;62090;52.330;9.104;2023-04-08T04:27:19;101763.75;;;7.83;88.84
3132;BME280;62090;52.330;9.104;2023-04-08T04:29:49;101757.88;;;7.68;89.42
3132;BME280;62090;52.330;9.104;2023-04-08T04:32:19;101768.84;;;7.67;90.08
3132;BME280;62090;52.330;9.104;2023-04-08T04:34:49;101759.16;;;7.59;90.47
3132;BME280;62090;52.330;9.104;2023-04-08T04:37:18;101750.25;;;7.51;91.10
3132;BME280;62090;52.330;9.104;2023-04-08T04:39:48;101763.81;;;7.52;90.96
3132;BME280;62090;52.330;9.104;2023-04-08T04:42:21;101781.34;;;7.63;91.79
3132;BME280;62090;52.330;9.104;2023-04-08T04:44:51;101771.84;;;7.59;91.87
3132;BME280;62090;52.330;9.104;2023-04-08T04:47:20;101737.91;;;7.41;91.71
3132;BME280;62090;52.330;9.104;2023-04-08T04:49:51;101772.63;;;7.58;91.92
3132;BME280;62090;52.330;9.104;2023-04-08T04:52:21;101781.53;;;7.67;91.93
3132;BME280;62090;52.330;9.104;2023-04-08T04:54:50;101764.94;;;7.57;92.09
3132;BME280;62090;52.330;9.104;2023-04-08T04:57:23;101778.28;;;7.69;91.93
3132;BME280;62090;52.330;9.104;2023-04-08T04:59:53;101776.16;;;7.77;91.63
3132;BME280;62090;52.330;9.104;2023-04-08T05:02:22;101775.03;;;7.72;91.80
3132;BME280;62090;52.330;9.104;2023-04-08T05:04:52;101771.22;;;7.80;91.46
3132;BME280;62090;52.330;9.104;2023-04-08T05:07:22;101773.75;;;7.80;91.38
3132;BME280;62090;52.330;9.104;2023-04-08T05:09:52;101780.97;;;7.88;90.42
3132;BME280;62090;52.330;9.104;2023-04-08T05:12:25;101787.88;;;7.91;90.04
3132;BME280;62090;52.330;9.104;2023-04-08T05:14:58;101776.63;;;7.86;90.85
3132;BME280;62090;52.330;9.104;2023-04-08T05:17:28;101772.47;;;7.88;90.17
3132;BME280;62090;52.330;9.104;2023-04-08T05:19:57;101789.63;;;7.92;89.98
3132;BME280;62090;52.330;9.104;2023-04-08T05:22:27;101790.09;;;7.85;90.94
3132;BME280;62090;52.330;9.104;2023-04-08T05:24:57;101779.63;;;7.79;91.03
3132;BME280;62090;52.330;9.104;2023-04-08T05:27:29;101792.00;;;7.89;90.89
3132;BME280;62090;52.330;9.104;2023-04-08T05:29:59;101808.81;;;7.87;91.54
3132;BME280;62090;52.330;9.104;2023-04-08T05:32:30;101780.09;;;7.55;91.31
3132;BME280;62090;52.330;9.104;2023-04-08T05:35:01;101810.72;;;7.75;91.54
3132;BME280;62090;52.330;9.104;2023-04-08T05:37:30;101808.47;;;7.64;92.32
3132;BME280;62090;52.330;9.104;2023-04-08T05:40:00;101817.34;;;7.73;92.53
3132;BME280;62090;52.330;9.104;2023-04-08T05:42:33;101804.66;;;7.73;91.90
3132;BME280;62090;52.330;9.104;2023-04-08T05:45:03;101806.31;;;7.72;92.40
3132;BME280;62090;52.330;9.104;2023-04-08T05:47:33;101815.09;;;7.77;92.02
3132;BME280;62090;52.330;9.104;2023-04-08T05:50:03;101813.38;;;7.78;92.83
3132;BME280;62090;52.330;9.104;2023-04-08T05:52:33;101824.97;;;7.73;92.80
3132;BME280;62090;52.330;9.104;2023-04-08T05:55:04;101824.91;;;7.71;93.65
3132;BME280;62090;52.330;9.104;2023-04-08T05:57:37;101815.09;;;7.77;93.35
3132;BME280;62090;52.330;9.104;2023-04-08T06:00:08;101807.50;;;7.62;93.72
3132;BME280;62090;52.330;9.104;2023-04-08T06:02:39;101833.88;;;7.81;93.34
3132;BME280;62090;52.330;9.104;2023-04-08T06:05:09;101838.63;;;7.75;94.01
3132;BME280;62090;52.330;9.104;2023-04-08T06:07:39;101831.63;;;7.71;94.45
3132;BME280;62090;52.330;9.104;2023-04-08T06:10:09;101831.53;;;7.69;94.59
3132;BME280;62090;52.330;9.104;2023-04-08T06:12:41;101832.75;;;7.76;93.96
3132;BME280;62090;52.330;9.104;2023-04-08T06:15:11;101853.84;;;7.75;95.02
3132;BME280;62090;52.330;9.104;2023-04-08T06:17:42;101826.38;;;7.68;94.56
3132;BME280;62090;52.330;9.104;2023-04-08T06:20:12;101828.53;;;7.60;95.23
3132;BME280;62090;52.330;9.104;2023-04-08T06:22:42;101844.09;;;7.66;95.96
3132;BME280;62090;52.330;9.104;2023-04-08T06:25:12;101845.75;;;7.66;97.01
3132;BME280;62090;52.330;9.104;2023-04-08T06:27:44;101844.88;;;7.65;97.14
3132;BME280;62090;52.330;9.104;2023-04-08T06:30:14;101852.72;;;7.70;97.02
3132;BME280;62090;52.330;9.104;2023-04-08T06:32:44;101854.81;;;7.77;97.42
3132;BME280;62090;52.330;9.104;2023-04-08T06:35:15;101855.94;;;7.67;97.76
3132;BME280;62090;52.330;9.104;2023-04-08T06:37:45;101856.94;;;7.85;97.32
3132;BME280;62090;52.330;9.104;2023-04-08T06:40:15;101855.66;;;7.93;96.37
3132;BME280;62090;52.330;9.104;2023-04-08T06:42:47;101856.31;;;8.05;96.06
3132;BME280;62090;52.330;9.104;2023-04-08T06:45:31;101859.59;;;8.03;95.97
3132;BME280;62090;52.330;9.104;2023-04-08T06:48:01;101849.50;;;8.04;96.58
3132;BME280;62090;52.330;9.104;2023-04-08T06:50:32;101855.31;;;8.02;96.65
3132;BME280;62090;52.330;9.104;2023-04-08T06:53:02;101853.41;;;7.98;96.69
3132;BME280;62090;52.330;9.104;2023-04-08T06:55:32;101867.50;;;8.09;96.73
3132;BME280;62090;52.330;9.104;2023-04-08T06:58:04;101888.22;;;8.17;96.27
3132;BME280;62090;52.330;9.104;2023-04-08T07:00:34;101822.19;;;7.68;97.64
3132;BME280;62090;52.330;9.104;2023-04-08T07:03:04;101890.19;;;7.90;99.23
3132;BME280;62090;52.330;9.104;2023-04-08T07:05:34;101879.94;;;7.88;99.57
3132;BME280;62090;52.330;9.104;2023-04-08T07:08:05;101836.19;;;7.61;100.00
3132;BME280;62090;52.330;9.104;2023-04-08T07:10:35;101887.78;;;7.77;100.00
3132;BME280;62090;52.330;9.104;2023-04-08T07:13:07;101883.44;;;7.90;99.68
3132;BME280;62090;52.330;9.104;2023-04-08T07:15:37;101902.88;;;8.06;99.23
3132;BME280;62090;52.330;9.104;2023-04-08T07:18:07;101900.34;;;8.06;99.17
3132;BME280;62090;52.330;9.104;2023-04-08T07:20:37;101890.34;;;8.09;98.61
3132;BME280;62090;52.330;9.104;2023-04-08T07:23:08;101903.31;;;8.14;98.70
3132;BME280;62090;52.330;9.104;2023-04-08T07:25:38;101905.44;;;8.22;98.04
3132;BME280;62090;52.330;9.104;2023-04-08T07:28:11;101886.63;;;8.02;98.89
3132;BME280;62090;52.330;9.104;2023-04-08T07:30:40;101907.56;;;8.15;99.12
3132;BME280;62090;52.330;9.104;2023-04-08T07:33:10;101892.72;;;8.06;99.01
3132;BME280;62090;52.330;9.104;2023-04-08T07:35:41;101895.84;;;8.17;98.60
3132;BME280;62090;52.330;9.104;2023-04-08T07:38:11;101860.53;;;8.05;98.76
3132;BME280;62090;52.330;9.104;2023-04-08T07:40:41;101904.97;;;8.29;97.94
3132;BME280;62090;52.330;9.104;2023-04-08T07:43:14;101911.53;;;8.40;97.43
3132;BME280;62090;52.330;9.104;2023-04-08T07:45:43;101886.88;;;8.23;96.92
3132;BME280;62090;52.330;9.104;2023-04-08T07:48:13;101891.31;;;8.27;97.57
3132;BME280;62090;52.330;9.104;2023-04-08T07:50:43;101906.81;;;8.48;97.35
3132;BME280;62090;52.330;9.104;2023-04-08T07:53:33;101893.25;;;8.31;97.52
3132;BME280;62090;52.330;9.104;2023-04-08T07:56:09;101910.00;;;8.44;97.67
3132;BME280;62090;52.330;9.104;2023-04-08T07:58:42;101915.00;;;8.42;97.89
3132;BME280;62090;52.330;9.104;2023-04-08T08:01:16;101908.34;;;8.44;97.26
3132;BME280;62090;52.330;9.104;2023-04-08T08:03:47;101909.03;;;8.42;96.83
3132;BME280;62090;52.330;9.104;2023-04-08T08:06:19;101920.00;;;8.57;96.26
3132;BME280;62090;52.330;9.104;2023-04-08T08:08:49;101922.38;;;8.54;95.46
3132;BME280;62090;52.330;9.104;2023-04-08T08:11:18;101925.88;;;8.56;95.75
3132;BME280;62090;52.330;9.104;2023-04-08T08:13:51;101917.16;;;8.35;96.30
3132;BME280;62090;52.330;9.104;2023-04-08T08:16:21;101912.50;;;8.12;96.99
3132;BME280;62090;52.330;9.104;2023-04-08T08:18:53;101754.16;;;7.45;96.53
3132;BME280;62090;52.330;9.104;2023-04-08T08:21:23;101920.50;;;8.50;96.31
3132;BME280;62090;52.330;9.104;2023-04-08T08:23:52;101909.44;;;8.50;95.72
3132;BME280;62090;52.330;9.104;2023-04-08T08:26:23;101912.94;;;8.52;95.02
3132;BME280;62090;52.330;9.104;2023-04-08T08:28:55;101920.00;;;8.57;94.70
3132;BME280;62090;52.330;9.104;2023-04-08T08:31:25;101936.44;;;8.64;94.86
3132;BME280;62090;52.330;9.104;2023-04-08T08:33:55;101949.53;;;8.87;94.30
3132;BME280;62090;52.330;9.104;2023-04-08T08:36:26;101918.31;;;8.74;93.94
3132;BME280;62090;52.330;9.104;2023-04-08T08:39:01;101943.63;;;8.88;92.99
3132;BME280;62090;52.330;9.104;2023-04-08T08:41:34;101948.97;;;8.93;93.57
3132;BME280;62090;52.330;9.104;2023-04-08T08:44:07;101923.53;;;8.93;92.53
3132;BME280;62090;52.330;9.104;2023-04-08T08:46:41;101932.25;;;8.98;91.64
3132;BME280;62090;52.330;9.104;2023-04-08T08:49:12;101897.94;;;8.72;91.58
3132;BME280;62090;52.330;9.104;2023-04-08T08:51:44;101854.81;;;8.25;91.43
3132;BME280;62090;52.330;9.104;2023-04-08T08:54:15;101932.59;;;8.88;92.56
3132;BME280;62090;52.330;9.104;2023-04-08T08:56:44;101933.97;;;8.99;92.18
3132;BME280;62090;52.330;9.104;2023-04-08T08:59:17;101942.53;;;9.17;91.56
3132;BME280;62090;52.330;9.104;2023-04-08T09:01:47;101953.16;;;9.26;90.02
3132;BME280;62090;52.330;9.104;2023-04-08T09:04:18;101949.09;;;9.48;90.09
3132;BME280;62090;52.330;9.104;2023-04-08T09:07:03;101943.09;;;9.46;89.02
3132;BME280;62090;52.330;9.104;2023-04-08T09:09:47;101952.56;;;9.32;88.58
3132;BME280;62090;52.330;9.104;2023-04-08T09:12:17;101941.59;;;9.33;89.67
3132;BME280;62090;52.330;9.104;2023-04-08T09:14:51;101952.44;;;9.47;89.37
3132;BME280;62090;52.330;9.104;2023-04-08T09:17:33;101962.03;;;9.35;90.42
3132;BME280;62090;52.330;9.104;2023-04-08T09:20:08;101952.38;;;9.45;89.61
3132;BME280;62090;52.330;9.104;2023-04-08T09:22:58;101920.03;;;9.25;88.51
3132;BME280;62090;52.330;9.104;2023-04-08T09:25:30;101930.84;;;9.39;89.84
3132;BME280;62090;52.330;9.104;2023-04-08T09:28:01;101932.09;;;9.47;88.89
3132;BME280;62090;52.330;9.104;2023-04-08T09:30:34;101953.47;;;9.68;87.87
3132;BME280;62090;52.330;9.104;2023-04-08T09:33:03;101970.28;;;9.82;87.29
3132;BME280;62090;52.330;9.104;2023-04-08T09:35:34;101976.16;;;9.81;87.42
3132;BME280;62090;52.330;9.104;2023-04-08T09:38:04;101968.31;;;9.77;87.71
3132;BME280;62090;52.330;9.104;2023-04-08T09:40:35;101972.03;;;9.83;88.14
3132;BME280;62090;52.330;9.104;2023-04-08T09:43:08;101966.69;;;9.79;88.19
3132;BME280;62090;52.330;9.104;2023-04-08T09:45:44;101961.69;;;9.80;87.41
3132;BME280;62090;52.330;9.104;2023-04-08T09:48:17;101828.81;;;8.97;87.71
3132;BME280;62090;52.330;9.104;2023-04-08T09:50:53;101976.28;;;9.84;87.57
3132;BME280;62090;52.330;9.104;2023-04-08T09:53:30;101945.81;;;9.68;87.15
3132;BME280;62090;52.330;9.104;2023-04-08T09:56:06;101986.94;;;9.93;87.22
3132;BME280;62090;52.330;9.104;2023-04-08T09:58:38;101964.69;;;9.71;87.58
3132;BME280;62090;52.330;9.104;2023-04-08T10:01:13;101976.97;;;9.98;86.93
3132;BME280;62090;52.330;9.104;2023-04-08T10:03:48;101996.69;;;10.20;87.29
3132;BME280;62090;52.330;9.104;2023-04-08T10:06:20;101967.13;;;10.23;86.24
3132;BME280;62090;52.330;9.104;2023-04-08T10:08:51;101976.63;;;10.27;85.19
3132;BME280;62090;52.330;9.104;2023-04-08T10:11:21;101976.84;;;10.32;86.09
3132;BME280;62090;52.330;9.104;2023-04-08T10:13:52;101997.25;;;10.70;85.17
3132;BME280;62090;52.330;9.104;2023-04-08T10:16:25;101944.25;;;10.63;83.03
3132;BME280;62090;52.330;9.104;2023-04-08T10:18:56;101948.38;;;10.40;83.02
3132;BME280;62090;52.330;9.104;2023-04-08T10:21:35;101962.81;;;10.22;84.29
3132;BME280;62090;52.330;9.104;2023-04-08T10:24:06;101919.38;;;10.01;85.36
3132;BME280;62090;52.330;9.104;2023-04-08T10:26:38;101991.59;;;10.39;85.64
3132;BME280;62090;52.330;9.104;2023-04-08T10:32:29;102001.81;;;10.58;83.45
3132;BME280;62090;52.330;9.104;2023-04-08T10:34:59;101979.34;;;10.49;84.13
3132;BME280;62090;52.330;9.104;2023-04-08T10:37:30;101907.56;;;10.21;83.94
3132;BME280;62090;52.330;9.104;2023-04-08T10:40:00;101960.72;;;10.50;83.72
3132;BME280;62090;52.330;9.104;2023-04-08T10:42:30;101981.69;;;10.64;83.56
3132;BME280;62090;52.330;9.104;2023-04-08T10:45:00;101855.00;;;10.62;79.25
3132;BME280;62090;52.330;9.104;2023-04-08T10:47:33;101933.34;;;10.46;81.65
3132;BME280;62090;52.330;9.104;2023-04-08T10:50:11;101987.06;;;10.70;82.88
3132;BME280;62090;52.330;9.104;2023-04-08T10:52:45;102005.22;;;10.58;83.61
3132;BME280;62090;52.330;9.104;2023-04-08T10:55:19;101961.91;;;10.39;84.69
3132;BME280;62090;52.330;9.104;2023-04-08T10:57:51;101996.63;;;10.37;85.47
3132;BME280;62090;52.330;9.104;2023-04-08T11:00:32;101986.09;;;10.30;86.46
3132;BME280;62090;52.330;9.104;2023-04-08T11:03:06;102000.94;;;10.38;86.39
3132;BME280;62090;52.330;9.104;2023-04-08T11:05:38;102000.44;;;10.47;86.04
3132;BME280;62090;52.330;9.104;2023-04-08T11:08:09;101974.28;;;10.32;85.57
3132;BME280;62090;52.330;9.104;2023-04-08T11:10:39;101996.88;;;10.61;86.02
3132;BME280;62090;52.330;9.104;2023-04-08T11:13:10;101949.03;;;10.55;84.35
3132;BME280;62090;52.330;9.104;2023-04-08T11:15:41;101977.53;;;10.85;83.95
3132;BME280;62090;52.330;9.104;2023-04-08T11:18:14;101954.31;;;10.98;82.89
3132;BME280;62090;52.330;9.104;2023-04-08T11:20:44;101991.03;;;11.23;82.14
3132;BME280;62090;52.330;9.104;2023-04-08T11:23:14;101999.81;;;11.29;82.06
3132;BME280;62090;52.330;9.104;2023-04-08T11:25:45;102000.50;;;11.25;82.40
3132;BME280;62090;52.330;9.104;2023-04-08T11:28:16;102005.63;;;11.46;82.51
3132;BME280;62090;52.330;9.104;2023-04-08T11:30:47;102005.44;;;11.62;81.79
3132;BME280;62090;52.330;9.104;2023-04-08T11:33:23;101990.91;;;11.61;81.09
3132;BME280;62090;52.330;9.104;2023-04-08T11:35:53;101958.72;;;11.44;80.15
3132;BME280;62090;52.330;9.104;2023-04-08T11:38:23;101930.47;;;11.19;80.86
3132;BME280;62090;52.330;9.104;2023-04-08T11:40:58;101989.69;;;11.52;81.23
3132;BME280;62090;52.330;9.104;2023-04-08T11:43:28;101987.94;;;11.51;81.26
3132;BME280;62090;52.330;9.104;2023-04-08T11:45:58;101983.19;;;11.39;80.96
3132;BME280;62090;52.330;9.104;2023-04-08T11:48:30;101982.69;;;11.48;81.33
3132;BME280;62090;52.330;9.104;2023-04-08T11:51:04;101978.84;;;11.57;80.99
3132;BME280;62090;52.330;9.104;2023-04-08T11:53:35;101983.19;;;11.60;80.57
3132;BME280;62090;52.330;9.104;2023-04-08T11:56:17;101994.91;;;11.75;79.70
3132;BME280;62090;52.330;9.104;2023-04-08T11:58:48;101984.94;;;11.61;80.40
3132;BME280;62090;52.330;9.104;2023-04-08T12:01:19;102002.28;;;11.69;80.16
3132;BME280;62090;52.330;9.104;2023-04-08T12:03:55;101977.28;;;11.40;81.10
3132;BME280;62090;52.330;9.104;2023-04-08T12:06:26;102011.19;;;11.58;81.47
3132;BME280;62090;52.330;9.104;2023-04-08T12:08:57;102000.38;;;11.43;81.90
3132;BME280;62090;52.330;9.104;2023-04-08T12:11:27;101973.53;;;11.32;82.02
3132;BME280;62090;52.330;9.104;2023-04-08T12:13:57;101999.94;;;11.53;81.60
3132;BME280;62090;52.330;9.104;2023-04-08T12:16:26;101975.53;;;11.60;81.20
3132;BME280;62090;52.330;9.104;2023-04-08T12:18:59;102011.44;;;11.64;81.24
3132;BME280;62090;52.330;9.104;2023-04-08T12:21:29;101983.53;;;11.47;82.13
3132;BME280;62090;52.330;9.104;2023-04-08T12:23:59;102014.25;;;11.70;81.90
3132;BME280;62090;52.330;9.104;2023-04-08T12:26:29;102010.09;;;11.72;81.51
3132;BME280;62090;52.330;9.104;2023-04-08T12:28:59;102012.22;;;11.82;81.17
3132;BME280;62090;52.330;9.104;2023-04-08T12:31:29;102007.94;;;11.81;80.29
3132;BME280;62090;52.330;9.104;2023-04-08T12:34:01;102013.97;;;11.83;80.79
3132;BME280;62090;52.330;9.104;2023-04-08T12:36:32;102011.00;;;11.73;80.58
3132;BME280;62090;52.330;9.104;2023-04-08T12:39:02;102010.09;;;11.72;81.31
3132;BME280;62090;52.330;9.104;2023-04-08T12:41:32;101957.66;;;11.39;81.42
3132;BME280;62090;52.330;9.104;2023-04-08T12:44:02;102011.78;;;11.51;81.62
3132;BME280;62090;52.330;9.104;2023-04-08T12:46:32;102016.31;;;11.37;83.41
3132;BME280;62090;52.330;9.104;2023-04-08T13:04:38;101997.38;;;11.53;81.76
3132;BME280;62090;52.330;9.104;2023-04-08T13:07:52;102016.81;;;11.50;82.81
3132;BME280;62090;52.330;9.104;2023-04-08T13:10:52;101734.53;;;9.86;82.11
3132;BME280;62090;52.330;9.104;2023-04-08T13:13:22;102007.47;;;11.71;81.81
3132;BME280;62090;52.330;9.104;2023-04-08T13:15:52;102016.22;;;11.76;81.73
3132;BME280;62090;52.330;9.104;2023-04-08T13:18:22;102001.22;;;11.83;82.04
3132;BME280;62090;52.330;9.104;2023-04-08T13:20:54;102008.06;;;12.07;80.54
3132;BME280;62090;52.330;9.104;2023-04-08T13:23:24;102008.97;;;11.87;80.78
3132;BME280;62090;52.330;9.104;2023-04-08T13:25:54;101968.13;;;11.66;80.58
3132;BME280;62090;52.330;9.104;2023-04-08T13:28:24;101989.94;;;11.78;80.95
3132;BME280;62090;52.330;9.104;2023-04-08T13:30:54;102007.75;;;11.77;80.75
3132;BME280;62090;52.330;9.104;2023-04-08T13:33:24;101987.50;;;11.40;82.92
3132;BME280;62090;52.330;9.104;2023-04-08T13:35:56;102017.78;;;11.32;84.12
3132;BME280;62090;52.330;9.104;2023-04-08T13:38:26;102011.16;;;11.36;84.62
3132;BME280;62090;52.330;9.104;2023-04-08T13:40:56;102009.16;;;11.50;83.74
3132;BME280;62090;52.330;9.104;2023-04-08T13:43:26;101987.16;;;11.53;83.01
3132;BME280;62090;52.330;9.104;2023-04-08T13:45:56;102007.69;;;11.75;82.45
3132;BME280;62090;52.330;9.104;2023-04-08T13:48:26;102009.97;;;11.69;81.95
3132;BME280;62090;52.330;9.104;2023-04-08T13:50:59;101970.75;;;11.26;82.19